sensor_id;sensor_type;location;lat;lon;timestamp;pressure;altitude;pressure_sealevel;temperature;humidity
58473;BME280;44775;51.564;5.460;2023-05-07T00:00:12;101321.19;;;12.40;100.00
58473;BME280;44775;51.564;5.460;2023-05-07T00:02:40;101328.38;;;12.47;100.00
58473;BME280;44775;51.564;5.460;2023-05-07T00:05:06;101324.88;;;12.47;100.00
58473;BME280;44775;51.564;5.460;2023-05-07T00:07:31;101329.38;;;12.55;100.00
58473;BME280;44775;51.564;5.460;2023-05-07T00:09:56;101327.38;;;12.57;100.00
58473;BME280;44775;51.564;5.460;2023-05-07T00:12:22;101331.72;;;12.58;100.00
58473;BME280;44775;51.564;5.460;2023-05-07T00:14:47;101327.19;;;12.58;100.00
58473;BME280;44775;51.564;5.460;2023-05-07T00:17:12;101330.69;;;12.59;100.00
58473;BME280;44775;51.564;5.460;2023-05-07T00:19:38;101320.84;;;12.59;100.00
58473;BME280;44775;51.564;5.460;2023-05-07T00:22:03;101318.31;;;12.58;100.00
58473;BME280;44775;51.564;5.460;2023-05-07T00:24:28;101322.66;;;12.59;100.00
58473;BME280;44775;51.564;5.460;2023-05-07T00:26:53;101314.63;;;12.59;100.00
58473;BME280;44775;51.564;5.460;2023-05-07T00:29:19;101308.94;;;12.53;100.00
58473;BME280;44775;51.564;5.460;2023-05-07T00:31:44;101306.75;;;12.57;100.00
58473;BME280;44775;51.564;5.460;2023-05-07T00:34:09;101306.41;;;12.60;100.00
58473;BME280;44775;51.564;5.460;2023-05-07T00:36:35;101309.25;;;12.59;100.00
58473;BME280;44775;51.564;5.460;2023-05-07T00:39:00;101309.25;;;12.59;100.00
58473;BME280;44775;51.564;5.460;2023-05-07T00:41:28;101305.59;;;12.60;100.00
58473;BME280;44775;51.564;5.460;2023-05-07T00:43:53;101301.22;;;12.59;100.00
58473;BME280;44775;51.564;5.460;2023-05-07T00:46:22;101295.50;;;12.62;100.00
58473;BME280;44775;51.564;5.460;2023-05-07T00:48:48;101299.53;;;12.66;100.00
58473;BME280;44775;51.564;5.460;2023-05-07T00:51:13;101300.19;;;12.68;100.00
58473;BME280;44775;51.564;5.460;2023-05-07T00:53:39;101303.69;;;12.68;100.00
58473;BME280;44775;51.564;5.460;2023-05-07T00:56:05;101301.03;;;12.68;100.00
58473;BME280;44775;51.564;5.460;2023-05-07T00:58:32;101289.31;;;12.69;100.00
58473;BME280;44775;51.564;5.460;2023-05-07T01:00:58;101293.81;;;12.69;100.00
58473;BME280;44775;51.564;5.460;2023-05-07T01:03:24;101299.84;;;12.71;100.00
58473;BME280;44775;51.564;5.460;2023-05-07T01:05:50;101300.53;;;12.73;100.00
58473;BME280;44775;51.564;5.460;2023-05-07T01:08:16;101296.34;;;12.70;100.00
58473;BME280;44775;51.564;5.460;2023-05-07T01:10:42;101286.44;;;12.71;100.00
58473;BME280;44775;51.564;5.460;2023-05-07T01:13:12;101296.66;;;12.75;100.00
58473;BME280;44775;51.564;5.460;2023-05-07T01:15:38;101286.59;;;12.77;100.00
58473;BME280;44775;51.564;5.460;2023-05-07T01:18:05;101296.97;;;12.81;100.00
58473;BME280;44775;51.564;5.460;2023-05-07T01:20:32;101296.97;;;12.81;100.00
58473;BME280;44775;51.564;5.460;2023-05-07T01:22:57;101291.81;;;12.79;100.00
58473;BME280;44775;51.564;5.460;2023-05-07T01:25:23;101289.13;;;12.79;100.00
58473;BME280;44775;51.564;5.460;2023-05-07T01:27:49;101282.06;;;12.78;100.00
58473;BME280;44775;51.564;5.460;2023-05-07T01:30:15;101287.28;;;12.80;100.00
58473;BME280;44775;51.564;5.460;2023-05-07T01:32:48;101280.88;;;12.81;100.00
58473;BME280;44775;51.564;5.460;2023-05-07T01:35:19;101273.53;;;12.83;100.00
58473;BME280;44775;51.564;5.460;2023-05-07T01:37:46;101271.00;;;12.81;100.00
58473;BME280;44775;51.564;5.460;2023-05-07T01:40:12;101267.78;;;12.86;100.00
58473;BME280;44775;51.564;5.460;2023-05-07T01:42:38;101262.41;;;12.86;100.00
58473;BME280;44775;51.564;5.460;2023-05-07T01:45:04;101266.59;;;12.88;100.00
58473;BME280;44775;51.564;5.460;2023-05-07T01:47:30;101264.94;;;12.87;100.00
58473;BME280;44775;51.564;5.460;2023-05-07T01:49:56;101266.25;;;12.91;100.00
58473;BME280;44775;51.564;5.460;2023-05-07T01:52:22;101271.28;;;12.94;100.00
58473;BME280;44775;51.564;5.460;2023-05-07T01:54:47;101266.25;;;12.91;100.00
58473;BME280;44775;51.564;5.460;2023-05-07T01:57:12;101265.63;;;12.89;100.00
58473;BME280;44775;51.564;5.460;2023-05-07T01:59:38;101261.25;;;12.88;100.00
58473;BME280;44775;51.564;5.460;2023-05-07T02:02:03;101260.75;;;12.85;100.00
58473;BME280;44775;51.564;5.460;2023-05-07T02:04:28;101263.63;;;12.83;100.00
58473;BME280;44775;51.564;5.460;2023-05-07T02:06:54;101270.66;;;12.84;100.00
58473;BME280;44775;51.564;5.460;2023-05-07T02:09:19;101259.56;;;12.87;100.00
58473;BME280;44775;51.564;5.460;2023-05-07T02:11:45;101264.94;;;12.87;100.00
58473;BME280;44775;51.564;5.460;2023-05-07T02:14:10;101259.22;;;12.90;100.00
58473;BME280;44775;51.564;5.460;2023-05-07T02:16:36;101262.06;;;12.89;100.00
58473;BME280;44775;51.564;5.460;2023-05-07T02:19:01;101259.88;;;12.92;100.00
58473;BME280;44775;51.564;5.460;2023-05-07T02:21:27;101245.34;;;12.87;100.00
58473;BME280;44775;51.564;5.460;2023-05-07T02:23:52;101257.56;;;12.89;100.00
58473;BME280;44775;51.564;5.460;2023-05-07T02:26:18;101257.56;;;12.89;100.00
58473;BME280;44775;51.564;5.460;2023-05-07T02:28:43;101264.75;;;12.89;100.00
58473;BME280;44775;51.564;5.460;2023-05-07T02:31:08;101261.78;;;12.84;100.00
58473;BME280;44775;51.564;5.460;2023-05-07T02:33:34;101268.31;;;12.81;100.00
58473;BME280;44775;51.564;5.460;2023-05-07T02:36:10;101258.94;;;12.77;100.00
58473;BME280;44775;51.564;5.460;2023-05-07T02:38:35;101263.78;;;12.82;100.00
58473;BME280;44775;51.564;5.460;2023-05-07T02:41:01;101265.63;;;12.81;100.00
58473;BME280;44775;51.564;5.460;2023-05-07T02:43:27;101265.81;;;12.80;100.00
58473;BME280;44775;51.564;5.460;2023-05-07T02:46:02;101273.03;;;12.79;100.00
58473;BME280;44775;51.564;5.460;2023-05-07T02:48:28;101268.00;;;12.76;100.00
58473;BME280;44775;51.564;5.460;2023-05-07T02:50:53;101270.00;;;12.74;100.00
58473;BME280;44775;51.564;5.460;2023-05-07T02:53:18;101264.66;;;12.74;100.00
58473;BME280;44775;51.564;5.460;2023-05-07T02:55:43;101270.34;;;12.71;100.00
58473;BME280;44775;51.564;5.460;2023-05-07T02:58:09;101265.19;;;12.69;100.00
58473;BME280;44775;51.564;5.460;2023-05-07T03:00:34;101275.03;;;12.69;100.00
58473;BME280;44775;51.564;5.460;2023-05-07T03:02:59;101276.88;;;12.68;100.00
58473;BME280;44775;51.564;5.460;2023-05-07T03:05:25;101271.03;;;12.65;100.00
58473;BME280;44775;51.564;5.460;2023-05-07T03:07:50;101261.53;;;12.62;100.00
58473;BME280;44775;51.564;5.460;2023-05-07T03:10:15;101272.06;;;12.64;100.00
58473;BME280;44775;51.564;5.460;2023-05-07T03:12:41;101273.06;;;12.63;100.00
58473;BME280;44775;51.564;5.460;2023-05-07T03:15:06;101261.84;;;12.59;100.00
58473;BME280;44775;51.564;5.460;2023-05-07T03:17:33;101268.69;;;12.62;100.00
58473;BME280;44775;51.564;5.460;2023-05-07T03:19:58;101263.69;;;12.59;100.00
58473;BME280;44775;51.564;5.460;2023-05-07T03:22:23;101268.06;;;12.60;100.00
58473;BME280;44775;51.564;5.460;2023-05-07T03:24:48;101269.72;;;12.61;100.00
58473;BME280;44775;51.564;5.460;2023-05-07T03:27:14;101265.19;;;12.61;100.00
58473;BME280;44775;51.564;5.460;2023-05-07T03:29:40;101264.34;;;12.61;100.00
58473;BME280;44775;51.564;5.460;2023-05-07T03:32:06;101262.69;;;12.60;100.00
58473;BME280;44775;51.564;5.460;2023-05-07T03:34:31;101261.19;;;12.57;100.00
58473;BME280;44775;51.564;5.460;2023-05-07T03:36:56;101256.50;;;12.59;100.00
58473;BME280;44775;51.564;5.460;2023-05-07T03:39:22;101253.97;;;12.58;100.00
58473;BME280;44775;51.564;5.460;2023-05-07T03:41:47;101257.31;;;12.60;100.00
58473;BME280;44775;51.564;5.460;2023-05-07T03:44:12;101253.81;;;12.59;100.00
58473;BME280;44775;51.564;5.460;2023-05-07T03:46:37;101246.59;;;12.60;100.00
58473;BME280;44775;51.564;5.460;2023-05-07T03:49:03;101249.28;;;12.60;100.00
58473;BME280;44775;51.564;5.460;2023-05-07T03:51:28;101254.31;;;12.63;100.00
58473;BME280;44775;51.564;5.460;2023-05-07T03:53:53;101247.97;;;12.56;100.00
58473;BME280;44775;51.564;5.460;2023-05-07T03:56:19;101262.84;;;12.58;100.00
58473;BME280;44775;51.564;5.460;2023-05-07T03:58:44;101265.88;;;12.55;100.00
58473;BME280;44775;51.564;5.460;2023-05-07T04:01:10;101265.03;;;12.55;100.00
58473;BME280;44775;51.564;5.460;2023-05-07T04:03:36;101266.72;;;12.56;100.00
58473;BME280;44775;51.564;5.460;2023-05-07T04:06:01;101268.06;;;12.60;100.00
58473;BME280;44775;51.564;5.460;2023-05-07T04:08:27;101271.72;;;12.59;100.00
58473;BME280;44775;51.564;5.460;2023-05-07T04:10:56;101274.91;;;12.62;100.00
58473;BME280;44775;51.564;5.460;2023-05-07T04:13:21;101280.44;;;12.61;100.00
58473;BME280;44775;51.564;5.460;2023-05-07T04:15:47;101278.59;;;12.61;100.00
58473;BME280;44775;51.564;5.460;2023-05-07T04:18:14;101283.94;;;12.61;100.00
58473;BME280;44775;51.564;5.460;2023-05-07T04:20:39;101287.13;;;12.65;100.00
58473;BME280;44775;51.564;5.460;2023-05-07T04:23:05;101281.75;;;12.65;100.00
58473;BME280;44775;51.564;5.460;2023-05-07T04:25:30;101285.13;;;12.67;100.00
58473;BME280;44775;51.564;5.460;2023-05-07T04:27:55;101285.13;;;12.67;100.00
58473;BME280;44775;51.564;5.460;2023-05-07T04:30:21;101280.59;;;12.67;100.00
58473;BME280;44775;51.564;5.460;2023-05-07T04:32:46;101282.44;;;12.67;100.00
58473;BME280;44775;51.564;5.460;2023-05-07T04:35:13;101278.94;;;12.66;100.00
58473;BME280;44775;51.564;5.460;2023-05-07T04:37:38;101283.94;;;12.69;100.00
58473;BME280;44775;51.564;5.460;2023-05-07T04:40:04;101286.44;;;12.71;100.00
58473;BME280;44775;51.564;5.460;2023-05-07T04:42:29;101287.47;;;12.70;100.00
58473;BME280;44775;51.564;5.460;2023-05-07T04:44:55;101281.09;;;12.71;100.00
58473;BME280;44775;51.564;5.460;2023-05-07T04:47:20;101283.59;;;12.72;100.00
58473;BME280;44775;51.564;5.460;2023-05-07T04:49:46;101280.25;;;12.70;100.00
58473;BME280;44775;51.564;5.460;2023-05-07T04:52:11;101291.13;;;12.77;100.00
58473;BME280;44775;51.564;5.460;2023-05-07T04:54:36;101286.44;;;12.79;100.00
58473;BME280;44775;51.564;5.460;2023-05-07T04:57:03;101289.91;;;12.88;100.00
58473;BME280;44775;51.564;5.460;2023-05-07T04:59:29;101288.56;;;12.92;100.00
58473;BME280;44775;51.564;5.460;2023-05-07T05:01:55;101301.47;;;12.96;100.00
58473;BME280;44775;51.564;5.460;2023-05-07T05:04:20;101290.53;;;12.98;100.00
58473;BME280;44775;51.564;5.460;2023-05-07T05:06:45;101292.69;;;13.03;100.00
58473;BME280;44775;51.564;5.460;2023-05-07T05:09:10;101293.22;;;13.06;100.00
58473;BME280;44775;51.564;5.460;2023-05-07T05:11:36;101302.59;;;13.10;100.00
58473;BME280;44775;51.564;5.460;2023-05-07T05:14:01;101304.72;;;13.15;100.00
58473;BME280;44775;51.564;5.460;2023-05-07T05:16:27;101301.69;;;13.18;100.00
58473;BME280;44775;51.564;5.460;2023-05-07T05:18:52;101309.09;;;13.24;100.00
58473;BME280;44775;51.564;5.460;2023-05-07T05:21:19;101309.72;;;13.34;100.00
58473;BME280;44775;51.564;5.460;2023-05-07T05:23:45;101311.84;;;13.47;100.00
58473;BME280;44775;51.564;5.460;2023-05-07T05:26:10;101301.88;;;13.56;100.00
58473;BME280;44775;51.564;5.460;2023-05-07T05:28:35;101306.19;;;13.65;100.00
58473;BME280;44775;51.564;5.460;2023-05-07T05:31:01;101316.81;;;13.81;100.00
58473;BME280;44775;51.564;5.460;2023-05-07T05:33:26;101315.44;;;13.85;100.00
58473;BME280;44775;51.564;5.460;2023-05-07T05:35:53;101322.81;;;13.91;100.00
58473;BME280;44775;51.564;5.460;2023-05-07T05:38:19;101326.25;;;14.00;100.00
58473;BME280;44775;51.564;5.460;2023-05-07T05:40:46;101324.53;;;14.07;100.00
58473;BME280;44775;51.564;5.460;2023-05-07T05:43:11;101328.19;;;14.14;100.00
58473;BME280;44775;51.564;5.460;2023-05-07T05:45:36;101332.34;;;14.17;100.00
58473;BME280;44775;51.564;5.460;2023-05-07T05:48:02;101331.34;;;14.18;100.00
58473;BME280;44775;51.564;5.460;2023-05-07T05:50:27;101334.03;;;14.18;100.00
58473;BME280;44775;51.564;5.460;2023-05-07T05:52:52;101334.31;;;14.23;100.00
58473;BME280;44775;51.564;5.460;2023-05-07T05:55:17;101342.22;;;14.25;100.00
58473;BME280;44775;51.564;5.460;2023-05-07T05:57:43;101337.56;;;14.33;100.00
58473;BME280;44775;51.564;5.460;2023-05-07T06:00:09;101326.00;;;14.48;100.00
58473;BME280;44775;51.564;5.460;2023-05-07T06:02:34;101334.63;;;14.43;100.00
58473;BME280;44775;51.564;5.460;2023-05-07T06:04:59;101331.38;;;14.56;100.00
58473;BME280;44775;51.564;5.460;2023-05-07T06:07:25;101337.22;;;14.59;100.00
58473;BME280;44775;51.564;5.460;2023-05-07T06:09:50;101335.56;;;14.73;100.00
58473;BME280;44775;51.564;5.460;2023-05-07T06:12:15;101339.53;;;14.77;100.00
58473;BME280;44775;51.564;5.460;2023-05-07T06:14:43;101342.34;;;14.84;100.00
58473;BME280;44775;51.564;5.460;2023-05-07T06:17:08;101340.41;;;14.93;100.00
58473;BME280;44775;51.564;5.460;2023-05-07T06:19:33;101336.97;;;14.99;100.00
58473;BME280;44775;51.564;5.460;2023-05-07T06:21:59;101343.00;;;15.16;100.00
58473;BME280;44775;51.564;5.460;2023-05-07T06:24:26;101353.09;;;15.28;100.00
58473;BME280;44775;51.564;5.460;2023-05-07T06:26:51;101347.34;;;15.31;100.00
58473;BME280;44775;51.564;5.460;2023-05-07T06:29:16;101349.81;;;15.48;100.00
58473;BME280;44775;51.564;5.460;2023-05-07T06:31:42;101349.66;;;15.49;100.00
58473;BME280;44775;51.564;5.460;2023-05-07T06:34:07;101341.38;;;15.51;100.00
58473;BME280;44775;51.564;5.460;2023-05-07T06:36:32;101343.19;;;15.65;100.00
58473;BME280;44775;51.564;5.460;2023-05-07T06:38:58;101354.53;;;15.75;100.00
58473;BME280;44775;51.564;5.460;2023-05-07T06:41:23;101350.03;;;15.82;100.00
58473;BME280;44775;51.564;5.460;2023-05-07T06:43:48;101355.78;;;15.94;100.00
58473;BME280;44775;51.564;5.460;2023-05-07T06:46:14;101356.47;;;16.03;100.00
58473;BME280;44775;51.564;5.460;2023-05-07T06:48:40;101351.19;;;16.16;100.00
58473;BME280;44775;51.564;5.460;2023-05-07T06:51:05;101362.78;;;16.10;100.00
58473;BME280;44775;51.564;5.460;2023-05-07T06:53:31;101365.63;;;16.23;100.00
58473;BME280;44775;51.564;5.460;2023-05-07T06:55:56;101364.97;;;16.21;100.00
58473;BME280;44775;51.564;5.460;2023-05-07T06:58:22;101361.22;;;16.22;100.00
58473;BME280;44775;51.564;5.460;2023-05-07T07:00:47;101357.47;;;16.17;100.00
58473;BME280;44775;51.564;5.460;2023-05-07T07:03:13;101364.56;;;16.24;100.00
58473;BME280;44775;51.564;5.460;2023-05-07T07:05:40;101373.28;;;16.26;100.00
58473;BME280;44775;51.564;5.460;2023-05-07T07:08:05;101374.09;;;16.20;100.00
58473;BME280;44775;51.564;5.460;2023-05-07T07:10:30;101379.66;;;16.19;100.00
58473;BME280;44775;51.564;5.460;2023-05-07T07:12:56;101372.97;;;15.93;100.00
58473;BME280;44775;51.564;5.460;2023-05-07T07:15:21;101374.13;;;15.84;100.00
58473;BME280;44775;51.564;5.460;2023-05-07T07:17:47;101369.03;;;15.74;100.00
58473;BME280;44775;51.564;5.460;2023-05-07T07:20:13;101370.13;;;15.65;100.00
58473;BME280;44775;51.564;5.460;2023-05-07T07:22:38;101359.00;;;15.68;100.00
58473;BME280;44775;51.564;5.460;2023-05-07T07:25:04;101370.44;;;15.70;100.00
58473;BME280;44775;51.564;5.460;2023-05-07T07:27:29;101373.59;;;15.74;100.00
58473;BME280;44775;51.564;5.460;2023-05-07T07:29:55;101378.31;;;15.72;100.00
58473;BME280;44775;51.564;5.460;2023-05-07T07:32:21;101368.81;;;15.76;100.00
58473;BME280;44775;51.564;5.460;2023-05-07T07:34:46;101371.22;;;15.86;100.00
58473;BME280;44775;51.564;5.460;2023-05-07T07:37:12;101380.94;;;16.01;100.00
58473;BME280;44775;51.564;5.460;2023-05-07T07:39:37;101380.34;;;16.06;100.00
58473;BME280;44775;51.564;5.460;2023-05-07T07:42:02;101396.16;;;16.31;100.00
58473;BME280;44775;51.564;5.460;2023-05-07T07:44:28;101393.78;;;16.42;100.00
58473;BME280;44775;51.564;5.460;2023-05-07T07:46:53;101391.97;;;16.49;100.00
58473;BME280;44775;51.564;5.460;2023-05-07T07:49:19;101382.91;;;16.36;100.00
58473;BME280;44775;51.564;5.460;2023-05-07T07:51:44;101394.28;;;16.52;100.00
58473;BME280;44775;51.564;5.460;2023-05-07T07:54:09;101391.91;;;16.43;100.00
58473;BME280;44775;51.564;5.460;2023-05-07T07:56:35;101397.34;;;16.71;100.00
58473;BME280;44775;51.564;5.460;2023-05-07T07:59:00;101400.84;;;16.93;100.00
58473;BME280;44775;51.564;5.460;2023-05-07T08:01:26;101398.47;;;17.05;100.00
58473;BME280;44775;51.564;5.460;2023-05-07T08:03:52;101405.03;;;17.30;100.00
58473;BME280;44775;51.564;5.460;2023-05-07T08:06:17;101404.91;;;17.45;100.00
58473;BME280;44775;51.564;5.460;2023-05-07T08:08:43;101405.56;;;17.54;100.00
58473;BME280;44775;51.564;5.460;2023-05-07T08:11:08;101404.38;;;17.63;100.00
58473;BME280;44775;51.564;5.460;2023-05-07T08:13:34;101400.47;;;17.72;100.00
58473;BME280;44775;51.564;5.460;2023-05-07T08:16:00;101395.88;;;17.73;100.00
58473;BME280;44775;51.564;5.460;2023-05-07T08:18:25;101397.41;;;17.88;100.00
58473;BME280;44775;51.564;5.460;2023-05-07T08:20:51;101405.16;;;18.05;100.00
58473;BME280;44775;51.564;5.460;2023-05-07T08:23:16;101406.84;;;18.26;100.00
58473;BME280;44775;51.564;5.460;2023-05-07T08:25:41;101413.34;;;18.38;100.00
58473;BME280;44775;51.564;5.460;2023-05-07T08:28:07;101410.66;;;18.71;100.00
58473;BME280;44775;51.564;5.460;2023-05-07T08:30:33;101407.13;;;18.91;100.00
58473;BME280;44775;51.564;5.460;2023-05-07T08:33:00;101417.72;;;18.99;100.00
58473;BME280;44775;51.564;5.460;2023-05-07T08:35:25;101407.75;;;18.93;100.00
58473;BME280;44775;51.564;5.460;2023-05-07T08:37:52;101410.66;;;18.84;100.00
58473;BME280;44775;51.564;5.460;2023-05-07T08:40:17;101403.13;;;19.06;100.00
58473;BME280;44775;51.564;5.460;2023-05-07T08:42:44;101414.13;;;19.31;100.00
58473;BME280;44775;51.564;5.460;2023-05-07T08:45:10;101416.09;;;19.63;100.00
58473;BME280;44775;51.564;5.460;2023-05-07T08:47:43;101419.09;;;19.99;100.00
58473;BME280;44775;51.564;5.460;2023-05-07T08:50:12;101410.63;;;20.21;99.33
58473;BME280;44775;51.564;5.460;2023-05-07T08:52:39;101429.28;;;20.42;93.01
58473;BME280;44775;51.564;5.460;2023-05-07T08:55:06;101423.78;;;20.56;96.13
58473;BME280;44775;51.564;5.460;2023-05-07T08:57:31;101426.72;;;20.47;95.28
58473;BME280;44775;51.564;5.460;2023-05-07T08:59:57;101418.91;;;20.33;92.26
58473;BME280;44775;51.564;5.460;2023-05-07T09:02:22;101430.53;;;20.40;91.48
58473;BME280;44775;51.564;5.460;2023-05-07T09:04:47;101425.56;;;20.37;95.66
58473;BME280;44775;51.564;5.460;2023-05-07T09:07:13;101416.03;;;20.21;95.21
58473;BME280;44775;51.564;5.460;2023-05-07T09:09:38;101423.56;;;20.25;94.91
58473;BME280;44775;51.564;5.460;2023-05-07T09:12:03;101420.75;;;20.39;92.01
58473;BME280;44775;51.564;5.460;2023-05-07T09:14:29;101433.03;;;20.41;91.02
58473;BME280;44775;51.564;5.460;2023-05-07T09:16:56;101422.09;;;20.23;93.14
58473;BME280;44775;51.564;5.460;2023-05-07T09:19:25;101418.66;;;20.02;95.70
58473;BME280;44775;51.564;5.460;2023-05-07T09:21:58;101426.09;;;20.14;96.11
58473;BME280;44775;51.564;5.460;2023-05-07T09:24:24;101420.75;;;20.00;97.01
58473;BME280;44775;51.564;5.460;2023-05-07T09:26:49;101422.84;;;20.05;97.23
58473;BME280;44775;51.564;5.460;2023-05-07T09:29:15;101430.28;;;19.78;95.39
58473;BME280;44775;51.564;5.460;2023-05-07T09:31:42;101423.78;;;19.79;98.34
58473;BME280;44775;51.564;5.460;2023-05-07T09:34:07;101430.91;;;19.73;99.18
58473;BME280;44775;51.564;5.460;2023-05-07T09:36:33;101417.56;;;19.72;99.88
58473;BME280;44775;51.564;5.460;2023-05-07T09:39:01;101421.44;;;19.89;100.00
58473;BME280;44775;51.564;5.460;2023-05-07T09:41:26;101429.09;;;20.05;97.47
58473;BME280;44775;51.564;5.460;2023-05-07T09:43:55;101431.25;;;19.90;96.41
58473;BME280;44775;51.564;5.460;2023-05-07T09:46:32;101435.34;;;20.06;91.48
58473;BME280;44775;51.564;5.460;2023-05-07T09:49:01;101425.69;;;20.17;91.88
58473;BME280;44775;51.564;5.460;2023-05-07T09:51:34;101436.06;;;20.26;96.09
58473;BME280;44775;51.564;5.460;2023-05-07T09:54:02;101433.03;;;20.41;90.17
58473;BME280;44775;51.564;5.460;2023-05-07T09:56:29;101436.34;;;20.75;89.43
58473;BME280;44775;51.564;5.460;2023-05-07T09:58:58;101429.97;;;20.88;86.42
58473;BME280;44775;51.564;5.460;2023-05-07T10:01:25;101443.69;;;21.18;87.12
58473;BME280;44775;51.564;5.460;2023-05-07T10:03:51;101437.19;;;21.19;87.57
58473;BME280;44775;51.564;5.460;2023-05-07T10:06:19;101436.13;;;21.45;84.71
58473;BME280;44775;51.564;5.460;2023-05-07T10:08:45;101441.03;;;22.03;84.69
58473;BME280;44775;51.564;5.460;2023-05-07T10:11:11;101437.31;;;22.46;80.47
58473;BME280;44775;51.564;5.460;2023-05-07T10:13:37;101439.00;;;22.59;75.60
58473;BME280;44775;51.564;5.460;2023-05-07T10:16:04;101442.53;;;22.48;80.66
58473;BME280;44775;51.564;5.460;2023-05-07T10:18:33;101439.78;;;23.13;76.38
58473;BME280;44775;51.564;5.460;2023-05-07T10:21:11;101439.38;;;23.68;76.99
58473;BME280;44775;51.564;5.460;2023-05-07T10:23:41;101441.94;;;23.87;67.28
58473;BME280;44775;51.564;5.460;2023-05-07T10:26:09;101429.28;;;23.57;72.47
58473;BME280;44775;51.564;5.460;2023-05-07T10:28:39;101440.88;;;23.64;70.68
58473;BME280;44775;51.564;5.460;2023-05-07T10:31:18;101434.94;;;23.79;69.38
58473;BME280;44775;51.564;5.460;2023-05-07T10:33:48;101434.63;;;24.04;71.23
58473;BME280;44775;51.564;5.460;2023-05-07T10:36:16;101441.72;;;24.05;68.62
58473;BME280;44775;51.564;5.460;2023-05-07T10:38:42;101443.94;;;23.91;62.40
58473;BME280;44775;51.564;5.460;2023-05-07T10:41:08;101438.91;;;24.00;69.36
58473;BME280;44775;51.564;5.460;2023-05-07T10:43:39;101435.72;;;23.91;69.25
58473;BME280;44775;51.564;5.460;2023-05-07T10:46:14;101431.78;;;23.70;70.83
58473;BME280;44775;51.564;5.460;2023-05-07T10:51:32;101436.97;;;23.84;66.93
58473;BME280;44775;51.564;5.460;2023-05-07T10:56:36;101433.53;;;24.05;67.53
58473;BME280;44775;51.564;5.460;2023-05-07T11:01:56;101428.28;;;23.87;69.48
58473;BME280;44775;51.564;5.460;2023-05-07T11:04:23;101431.50;;;23.84;66.18
58473;BME280;44775;51.564;5.460;2023-05-07T11:15:07;101439.22;;;24.94;63.07
58473;BME280;44775;51.564;5.460;2023-05-07T11:17:34;101433.81;;;25.16;62.93
58473;BME280;44775;51.564;5.460;2023-05-07T11:20:01;101437.63;;;25.15;61.51
58473;BME280;44775;51.564;5.460;2023-05-07T11:24:55;101440.41;;;25.20;56.31
58473;BME280;44775;51.564;5.460;2023-05-07T11:27:24;101440.84;;;25.51;56.67
58473;BME280;44775;51.564;5.460;2023-05-07T11:29:50;101453.28;;;25.81;56.64
58473;BME280;44775;51.564;5.460;2023-05-07T11:32:15;101444.16;;;25.75;52.03
58473;BME280;44775;51.564;5.460;2023-05-07T11:34:47;101449.88;;;25.74;51.41
58473;BME280;44775;51.564;5.460;2023-05-07T11:37:19;101446.25;;;25.46;54.38
58473;BME280;44775;51.564;5.460;2023-05-07T11:39:45;101454.25;;;25.31;56.45
58473;BME280;44775;51.564;5.460;2023-05-07T11:42:31;101451.00;;;25.34;56.48
58473;BME280;44775;51.564;5.460;2023-05-07T11:44:58;101444.34;;;25.25;54.41
58473;BME280;44775;51.564;5.460;2023-05-07T11:47:23;101444.09;;;25.48;53.05
58473;BME280;44775;51.564;5.460;2023-05-07T11:49:50;101446.03;;;25.31;53.27
58473;BME280;44775;51.564;5.460;2023-05-07T11:52:17;101438.59;;;25.26;54.58
58473;BME280;44775;51.564;5.460;2023-05-07T11:54:49;101437.19;;;25.24;55.01
58473;BME280;44775;51.564;5.460;2023-05-07T11:57:15;101442.34;;;25.03;54.29
58473;BME280;44775;51.564;5.460;2023-05-07T11:59:40;101440.34;;;24.98;54.56
58473;BME280;44775;51.564;5.460;2023-05-07T12:02:06;101440.38;;;25.15;52.22
58473;BME280;44775;51.564;5.460;2023-05-07T12:04:32;101440.56;;;25.31;53.14
58473;BME280;44775;51.564;5.460;2023-05-07T12:06:57;101438.41;;;25.55;51.33
58473;BME280;44775;51.564;5.460;2023-05-07T12:09:23;101436.84;;;25.59;52.58
58473;BME280;44775;51.564;5.460;2023-05-07T12:11:48;101441.50;;;25.58;51.95
58473;BME280;44775;51.564;5.460;2023-05-07T12:14:13;101442.41;;;25.25;51.48
58473;BME280;44775;51.564;5.460;2023-05-07T12:16:41;101438.31;;;25.28;50.52
58473;BME280;44775;51.564;5.460;2023-05-07T12:19:07;101438.13;;;25.12;51.38
58473;BME280;44775;51.564;5.460;2023-05-07T12:21:34;101418.16;;;24.95;51.84
58473;BME280;44775;51.564;5.460;2023-05-07T12:23:59;101433.66;;;24.72;53.85
58473;BME280;44775;51.564;5.460;2023-05-07T12:26:25;101439.56;;;24.64;54.35
58473;BME280;44775;51.564;5.460;2023-05-07T12:28:50;101432.50;;;24.52;55.00
58473;BME280;44775;51.564;5.460;2023-05-07T12:31:17;101455.78;;;24.54;56.51
58473;BME280;44775;51.564;5.460;2023-05-07T12:33:42;101454.34;;;24.23;56.70
58473;BME280;44775;51.564;5.460;2023-05-07T12:36:08;101444.25;;;23.95;57.12
58473;BME280;44775;51.564;5.460;2023-05-07T12:38:38;101439.63;;;23.95;58.14
58473;BME280;44775;51.564;5.460;2023-05-07T12:41:04;101448.84;;;23.77;58.58
58473;BME280;44775;51.564;5.460;2023-05-07T12:43:29;101461.44;;;23.55;59.21
58473;BME280;44775;51.564;5.460;2023-05-07T12:45:57;101458.84;;;23.25;61.42
58473;BME280;44775;51.564;5.460;2023-05-07T12:48:23;101459.91;;;22.89;61.91
58473;BME280;44775;51.564;5.460;2023-05-07T12:50:59;101461.41;;;22.73;63.10
58473;BME280;44775;51.564;5.460;2023-05-07T12:53:26;101472.16;;;22.56;65.48
58473;BME280;44775;51.564;5.460;2023-05-07T12:55:54;101498.09;;;22.10;60.27